createdAt,value
2019-02-02T00:00:25.494Z,1.30
2019-02-02T00:03:26.994Z,1.30
2019-02-02T00:09:12.891Z,1.20
2019-02-02T00:14:58.467Z,1.20
2019-02-02T00:20:43.970Z,1.20
2019-02-02T00:23:45.605Z,1.20
2019-02-02T00:29:30.427Z,1.20
2019-02-02T00:32:32.839Z,1.10
2019-02-02T00:35:34.547Z,1.20
2019-02-02T00:41:20.344Z,1.10
2019-02-02T00:44:21.642Z,1.10
2019-02-02T00:50:02.259Z,1.20
2019-02-02T00:55:47.943Z,1.20
2019-02-02T01:01:34.578Z,1.20
2019-02-02T01:07:20.556Z,1.20
2019-02-02T01:10:21.100Z,1.20
2019-02-02T01:13:22.474Z,1.10
2019-02-02T01:16:23.078Z,1.20
2019-02-02T01:22:09.275Z,1.20
2019-02-02T01:28:04.840Z,1.20
2019-02-02T01:30:57.927Z,1.20
2019-02-02T01:36:43.502Z,1.20
2019-02-02T01:39:44.668Z,1.20
2019-02-02T01:42:45.675Z,1.20
2019-02-02T01:48:30.548Z,1.20
2019-02-02T01:51:32.124Z,1.10
2019-02-02T01:57:17.869Z,1.10
2019-02-02T02:03:03.517Z,1.10
2019-02-02T02:08:49.250Z,1.10
2019-02-02T02:11:50.480Z,1.10
2019-02-02T02:17:56.903Z,1.00
2019-02-02T02:23:41.851Z,1.10
2019-02-02T02:26:43.174Z,1.10
2019-02-02T02:32:28.623Z,1.10
2019-02-02T02:38:13.122Z,1.20
2019-02-02T02:43:57.954Z,1.20
2019-02-02T02:46:59.160Z,1.20
2019-02-02T02:52:45.182Z,1.20
2019-02-02T02:58:40.972Z,1.20
2019-02-02T03:04:17.267Z,1.10
2019-02-02T03:07:19.563Z,1.20
2019-02-02T03:10:20.918Z,1.10
2019-02-02T03:13:21.522Z,1.10
2019-02-02T03:16:22.032Z,1.10
2019-02-02T03:19:22.519Z,1.10
2019-02-02T03:25:07.630Z,1.10
2019-02-02T03:28:08.498Z,1.10
2019-02-02T03:33:55.036Z,1.00
2019-02-02T03:36:56.179Z,1.00
2019-02-02T03:39:56.875Z,1.00
2019-02-02T03:42:57.380Z,0.90
2019-02-02T03:48:42.834Z,0.90
2019-02-02T03:54:28.457Z,0.90
2019-02-02T04:00:12.905Z,0.90
2019-02-02T04:05:58.357Z,0.90
2019-02-02T04:08:59.051Z,0.80
2019-02-02T04:14:45.048Z,0.80
2019-02-02T04:20:30.555Z,0.80
2019-02-02T04:26:17.184Z,0.80
2019-02-02T04:29:23.579Z,0.80
2019-02-02T04:35:08.663Z,0.80
2019-02-02T04:40:54.459Z,0.80
2019-02-02T04:49:46.206Z,0.90
2019-02-02T04:55:32.817Z,0.80
2019-02-02T05:01:18.817Z,0.80
2019-02-02T05:07:05.397Z,0.80
2019-02-02T05:10:06.591Z,0.80
2019-02-02T05:15:52.235Z,0.90
2019-02-02T05:21:38.834Z,0.80
2019-02-02T05:27:23.940Z,0.90
2019-02-02T05:30:23.555Z,0.90
2019-02-02T05:36:14.160Z,0.90
2019-02-02T05:41:59.769Z,0.90
2019-02-02T05:47:45.381Z,0.90
2019-02-02T05:50:46.703Z,0.90
2019-02-02T05:56:32.387Z,0.90
2019-02-02T06:02:18.155Z,0.90
2019-02-02T06:08:04.010Z,1.00
2019-02-02T06:11:05.465Z,1.00
2019-02-02T06:16:51.243Z,1.00
2019-02-02T06:22:36.818Z,1.00
2019-02-02T06:28:22.864Z,1.00
2019-02-02T06:31:24.275Z,1.00
2019-02-02T06:37:09.990Z,1.00
2019-02-02T06:42:56.491Z,1.00
2019-02-02T06:48:41.937Z,0.90
2019-02-02T06:51:43.090Z,0.90
2019-02-02T06:57:27.646Z,1.00
2019-02-02T07:03:18.906Z,1.00
2019-02-02T07:09:05.232Z,1.00
2019-02-02T07:12:06.718Z,1.00
2019-02-02T07:15:08.215Z,1.00
2019-02-02T07:18:09.207Z,1.00
2019-02-02T07:23:54.403Z,1.10
2019-02-02T07:29:39.975Z,1.10
2019-02-02T07:32:40.527Z,1.00
2019-02-02T07:38:26.100Z,1.10
2019-02-02T07:44:06.937Z,1.10
2019-02-02T07:49:51.746Z,1.10
2019-02-02T07:52:52.260Z,1.00
2019-02-02T07:58:38.115Z,1.00
2019-02-02T08:04:23.794Z,1.10
2019-02-02T08:07:26.319Z,1.10
2019-02-02T08:10:27.190Z,1.10
2019-02-02T08:13:27.719Z,1.10
2019-02-02T08:19:13.283Z,1.10
2019-02-02T08:24:59.099Z,1.20
2019-02-02T08:30:52.007Z,1.20
2019-02-02T08:33:47.458Z,1.20
2019-02-02T08:39:33.114Z,1.20
2019-02-02T08:45:18.520Z,1.30
2019-02-02T08:51:03.096Z,1.30
2019-02-02T08:54:04.443Z,1.40
2019-02-02T08:59:50.052Z,1.40
2019-02-02T09:05:34.688Z,1.50
2019-02-02T09:11:21.260Z,1.60
2019-02-02T09:14:22.538Z,1.60
2019-02-02T09:20:07.976Z,1.60
2019-02-02T09:25:52.814Z,1.50
2019-02-02T09:31:38.391Z,1.60
2019-02-02T09:37:23.119Z,1.60
2019-02-02T09:40:25.685Z,1.60
2019-02-02T09:46:11.218Z,1.60
2019-02-02T09:51:56.914Z,1.60
2019-02-02T09:57:42.791Z,1.60
2019-02-02T10:00:43.410Z,1.60
2019-02-02T10:06:28.624Z,1.70
2019-02-02T10:12:13.628Z,1.60
2019-02-02T10:15:15.134Z,1.70
2019-02-02T10:18:16.095Z,1.70
2019-02-02T10:21:17.499Z,1.80
2019-02-02T10:27:03.254Z,1.80
2019-02-02T10:32:48.919Z,1.80
2019-02-02T10:38:34.394Z,1.70
2019-02-02T10:41:35.663Z,1.80
2019-02-02T10:47:21.211Z,1.70
2019-02-02T10:53:07.591Z,1.70
2019-02-02T10:58:53.742Z,1.70
2019-02-02T11:01:55.238Z,1.70
2019-02-02T11:07:41.202Z,1.70
2019-02-02T11:13:26.649Z,1.70
2019-02-02T11:19:13.117Z,1.80
2019-02-02T11:22:14.716Z,1.80
2019-02-02T11:28:01.589Z,1.80
2019-02-02T11:33:46.979Z,1.90
2019-02-02T11:39:32.879Z,2.00
2019-02-02T11:42:33.979Z,2.00
2019-02-02T11:48:19.692Z,1.90
2019-02-02T11:54:04.947Z,2.00
2019-02-02T11:59:50.255Z,1.90
2019-02-02T12:02:51.689Z,1.90
2019-02-02T12:08:37.182Z,2.00
2019-02-02T12:14:23.594Z,2.00
2019-02-02T12:20:09.317Z,2.00
2019-02-02T12:23:10.590Z,2.00
2019-02-02T12:28:50.644Z,1.90
2019-02-02T12:34:35.638Z,1.80
2019-02-02T12:40:20.483Z,1.90
2019-02-02T12:46:25.489Z,1.90
2019-02-02T12:49:26.206Z,1.80
2019-02-02T12:55:17.577Z,1.90
2019-02-02T13:04:14.903Z,1.90
2019-02-02T13:10:00.591Z,2.00
2019-02-02T13:15:46.999Z,2.10
2019-02-02T13:18:50.754Z,2.10
2019-02-02T13:24:36.784Z,2.20
2019-02-02T13:30:21.439Z,2.20
2019-02-02T13:36:08.053Z,2.30
2019-02-02T13:41:52.819Z,2.40
2019-02-02T13:44:54.014Z,2.30
2019-02-02T13:47:55.250Z,2.40
2019-02-02T13:50:56.130Z,2.30
2019-02-02T13:56:40.987Z,2.40
2019-02-02T13:59:42.336Z,2.40
2019-02-02T14:02:45.932Z,2.40
2019-02-02T14:05:46.309Z,2.40
2019-02-02T14:11:26.951Z,2.40
2019-02-02T14:17:11.887Z,2.40
2019-02-02T14:22:56.682Z,2.30
2019-02-02T14:25:57.347Z,2.40
2019-02-02T14:31:42.302Z,2.40
2019-02-02T14:34:43.470Z,2.40
2019-02-02T14:37:44.495Z,2.40
2019-02-02T14:43:30.734Z,2.40
2019-02-02T14:46:31.943Z,2.50
2019-02-02T14:52:17.530Z,2.40
2019-02-02T14:57:58.050Z,2.50
2019-02-02T15:06:50.094Z,2.50
2019-02-02T15:12:37.027Z,2.50
2019-02-02T15:18:22.297Z,2.50
2019-02-02T15:24:08.335Z,2.50
2019-02-02T15:29:54.688Z,2.50
2019-02-02T15:32:55.996Z,2.50
2019-02-02T15:36:03.282Z,2.40
2019-02-02T15:39:04.646Z,2.40
2019-02-02T15:44:49.479Z,2.40
2019-02-02T15:50:35.627Z,2.30
2019-02-02T15:53:36.889Z,2.40
2019-02-02T15:59:22.616Z,2.40
2019-02-02T16:05:07.560Z,2.40
2019-02-02T16:10:52.208Z,2.40
2019-02-02T16:16:36.911Z,2.40
2019-02-02T16:22:21.499Z,2.40
2019-02-02T16:25:22.725Z,2.40
2019-02-02T16:31:07.633Z,2.30
2019-02-02T16:36:52.338Z,2.40
2019-02-02T16:42:57.186Z,2.40
2019-02-02T16:49:11.612Z,2.40
2019-02-02T16:58:49.350Z,2.30
2019-02-02T17:01:49.890Z,2.40
2019-02-02T17:07:34.687Z,2.40
2019-02-02T17:13:20.244Z,2.30
2019-02-02T17:16:21.496Z,2.40
2019-02-02T17:22:06.423Z,2.40
2019-02-02T17:27:51.675Z,2.40
2019-02-02T17:30:52.694Z,2.40
2019-02-02T17:33:53.706Z,2.40
2019-02-02T17:36:54.926Z,2.40
2019-02-02T17:42:43.412Z,2.50
2019-02-02T17:48:28.431Z,2.50
2019-02-02T17:54:13.700Z,2.50
2019-02-02T17:57:15.028Z,2.50
2019-02-02T18:00:15.855Z,2.50
2019-02-02T18:03:17.347Z,2.40
2019-02-02T18:09:03.059Z,2.50
2019-02-02T18:14:53.048Z,2.40
2019-02-02T18:21:09.846Z,2.40
2019-02-02T18:24:10.338Z,2.50
2019-02-02T18:29:56.027Z,2.50
2019-02-02T18:34:18.122Z,2.40
2019-02-02T18:37:19.138Z,2.50
2019-02-02T18:40:19.793Z,2.50
2019-02-02T18:46:09.911Z,2.40
2019-02-02T18:49:11.493Z,2.40
2019-02-02T18:55:01.199Z,2.40
2019-02-02T18:58:54.814Z,2.40
2019-02-02T19:04:41.080Z,2.40
2019-02-02T19:10:26.837Z,2.40
2019-02-02T19:16:13.316Z,2.40
2019-02-02T19:19:14.513Z,2.40
2019-02-02T19:24:59.336Z,2.30
2019-02-02T19:30:46.087Z,2.30
2019-02-02T19:36:32.493Z,2.20
2019-02-02T19:39:33.801Z,2.20
2019-02-02T19:45:18.422Z,2.20
2019-02-02T19:48:19.622Z,2.10
2019-02-02T19:51:21.218Z,2.10
2019-02-02T19:57:07.777Z,2.20
2019-02-02T20:00:08.883Z,2.20
2019-02-02T20:05:54.778Z,2.20
2019-02-02T20:11:40.595Z,2.00
2019-02-02T20:17:25.826Z,2.10
2019-02-02T20:20:27.046Z,2.10
2019-02-02T20:26:11.926Z,2.00
2019-02-02T20:31:57.438Z,2.10
2019-02-02T20:37:43.337Z,2.10
2019-02-02T20:43:29.858Z,1.90
2019-02-02T20:46:31.311Z,2.00
2019-02-02T20:52:16.797Z,1.90
2019-02-02T20:58:02.976Z,1.90
2019-02-02T21:03:48.701Z,1.90
2019-02-02T21:06:49.964Z,1.80
2019-02-02T21:12:35.801Z,1.80
2019-02-02T21:18:21.642Z,1.80
2019-02-02T21:24:08.310Z,1.80
2019-02-02T21:27:09.970Z,1.80
2019-02-02T21:32:55.552Z,1.80
2019-02-02T21:38:40.746Z,1.80
2019-02-02T21:44:26.998Z,1.80
2019-02-02T21:47:27.806Z,1.80
2019-02-02T21:53:14.067Z,1.90
2019-02-02T21:58:59.625Z,1.90
2019-02-02T22:04:45.198Z,1.90
2019-02-02T22:07:47.473Z,1.90
2019-02-02T22:13:33.607Z,1.80
2019-02-02T22:19:19.107Z,1.90
2019-02-02T22:25:05.081Z,1.90
2019-02-02T22:28:06.626Z,1.90
2019-02-02T22:33:57.346Z,2.00
2019-02-02T22:39:43.663Z,2.00
2019-02-02T22:45:29.016Z,1.80
2019-02-02T22:48:29.528Z,1.90
2019-02-02T22:54:14.038Z,1.90
2019-02-02T23:00:00.471Z,1.90
2019-02-02T23:03:02.822Z,1.90
2019-02-02T23:08:49.443Z,1.90
2019-02-02T23:14:34.532Z,1.90
2019-02-02T23:20:19.361Z,1.80
2019-02-02T23:26:05.282Z,1.90
2019-02-02T23:32:12.906Z,1.90
2019-02-02T23:35:13.771Z,1.90
2019-02-02T23:40:58.447Z,2.00
2019-02-02T23:43:59.715Z,1.90
2019-02-02T23:49:45.771Z,1.90
2019-02-02T23:55:30.391Z,2.00
